createdAt,value
2022-10-31T00:01:24.175Z,102235.66
2022-10-31T00:03:51.139Z,102236.53
2022-10-31T00:06:21.089Z,102248.94
2022-10-31T00:09:00.082Z,102243.59
2022-10-31T00:11:27.664Z,102244.47
2022-10-31T00:13:55.146Z,102240.00
2022-10-31T00:16:25.555Z,102246.19
2022-10-31T00:18:57.914Z,102255.03
2022-10-31T00:21:26.487Z,102254.16
2022-10-31T00:23:53.738Z,102254.13
2022-10-31T00:26:20.947Z,102251.44
2022-10-31T00:28:48.216Z,102248.75
2022-10-31T00:31:15.827Z,102250.56
2022-10-31T00:33:43.225Z,102256.78
2022-10-31T00:36:16.004Z,102262.13
2022-10-31T00:38:43.638Z,102252.38
2022-10-31T00:41:16.986Z,102257.78
2022-10-31T00:43:44.828Z,102255.09
2022-10-31T00:46:13.254Z,102256.00
2022-10-31T00:48:40.461Z,102257.81
2022-10-31T00:51:07.767Z,102260.47
2022-10-31T00:53:34.927Z,102255.16
2022-10-31T00:56:01.799Z,102258.75
2022-10-31T00:58:28.688Z,102262.31
2022-10-31T01:00:56.307Z,102264.09
2022-10-31T01:03:30.275Z,102262.34
2022-10-31T01:06:12.634Z,102260.56
2022-10-31T01:08:40.115Z,102264.13
2022-10-31T01:11:23.921Z,102263.28
2022-10-31T01:13:55.200Z,102250.00
2022-10-31T01:16:26.234Z,102258.91
2022-10-31T01:18:54.227Z,102252.75
2022-10-31T01:21:25.213Z,102248.34
2022-10-31T01:23:55.473Z,102251.03
2022-10-31T01:26:28.918Z,102239.50
2022-10-31T01:28:59.221Z,102237.81
2022-10-31T01:31:30.819Z,102231.63
2022-10-31T01:33:58.724Z,102226.31
2022-10-31T01:36:32.337Z,102225.44
2022-10-31T01:39:03.070Z,102232.56
2022-10-31T01:41:33.538Z,102233.47
2022-10-31T01:44:12.989Z,102231.72
2022-10-31T01:47:08.521Z,102237.16
2022-10-31T01:49:56.122Z,102229.22
2022-10-31T01:52:37.674Z,102227.56
2022-10-31T01:55:07.950Z,102227.59
2022-10-31T01:57:39.164Z,102225.03
2022-10-31T02:00:10.632Z,102218.88
2022-10-31T02:02:37.613Z,102221.56
2022-10-31T02:05:10.750Z,102221.63
2022-10-31T02:07:55.678Z,102222.59
2022-10-31T02:10:24.162Z,102222.69
2022-10-31T02:12:57.775Z,102231.63
2022-10-31T02:15:25.063Z,102224.59
2022-10-31T02:17:52.900Z,102220.22
2022-10-31T02:20:26.324Z,102220.25
2022-10-31T02:23:36.527Z,102229.19
2022-10-31T02:26:18.457Z,102230.13
2022-10-31T02:29:09.868Z,102228.44
2022-10-31T02:32:02.183Z,102224.91
2022-10-31T02:34:55.766Z,102228.56
2022-10-31T02:37:51.194Z,102225.03
2022-10-31T02:40:31.885Z,102225.06
2022-10-31T02:43:29.988Z,102224.19
2022-10-31T02:46:16.285Z,102235.81
2022-10-31T02:48:46.031Z,102235.84
2022-10-31T02:51:13.742Z,102237.63
2022-10-31T02:53:40.727Z,102247.47
2022-10-31T02:56:17.047Z,102237.75
2022-10-31T02:59:01.983Z,102235.06
2022-10-31T03:02:13.917Z,102228.00
2022-10-31T03:05:23.967Z,102233.41
2022-10-31T03:08:09.795Z,102228.09
2022-10-31T03:10:45.263Z,102231.66
2022-10-31T03:13:25.407Z,102236.16
2022-10-31T03:16:07.425Z,102238.84
2022-10-31T03:18:44.393Z,102236.19
2022-10-31T03:21:21.072Z,102242.44
2022-10-31T03:23:51.846Z,102235.34
2022-10-31T03:26:21.105Z,102238.03
2022-10-31T03:29:03.274Z,102246.97
2022-10-31T03:31:39.850Z,102244.31
2022-10-31T03:34:09.123Z,102239.03
2022-10-31T03:36:39.696Z,102239.91
2022-10-31T03:39:11.654Z,102242.63
2022-10-31T03:41:46.090Z,102248.84
2022-10-31T03:44:20.002Z,102245.31
2022-10-31T03:46:47.254Z,102244.44
2022-10-31T03:49:15.175Z,102244.50
2022-10-31T03:52:00.419Z,102249.81
2022-10-31T03:54:44.552Z,102245.41
2022-10-31T03:57:39.992Z,102244.53
2022-10-31T04:00:13.681Z,102234.78
2022-10-31T04:03:00.618Z,102242.81
2022-10-31T04:05:29.530Z,102241.91
2022-10-31T04:07:58.788Z,102243.72
2022-10-31T04:10:31.993Z,102240.19
2022-10-31T04:13:09.381Z,102242.84
2022-10-31T04:15:38.431Z,102242.03
2022-10-31T04:18:06.566Z,102250.00
2022-10-31T04:20:36.891Z,102250.88
2022-10-31T04:23:04.907Z,102250.06
2022-10-31T04:25:32.090Z,102254.50
2022-10-31T04:27:59.326Z,102246.53
2022-10-31T04:30:26.482Z,102251.84
2022-10-31T04:32:53.354Z,102245.66
2022-10-31T04:35:20.240Z,102249.25
2022-10-31T04:37:47.124Z,102242.16
2022-10-31T04:40:14.046Z,102247.44
2022-10-31T04:42:40.923Z,102244.81
2022-10-31T04:45:08.195Z,102239.53
2022-10-31T04:47:35.107Z,102233.38
2022-10-31T04:50:03.101Z,102233.38
2022-10-31T04:52:30.009Z,102236.03
2022-10-31T04:54:56.883Z,102240.47
2022-10-31T04:57:23.779Z,102237.81
2022-10-31T04:59:50.781Z,102228.97
2022-10-31T05:02:17.659Z,102237.88
2022-10-31T05:04:44.583Z,102234.34
2022-10-31T05:07:11.509Z,102232.56
2022-10-31T05:09:39.158Z,102229.91
2022-10-31T05:12:06.203Z,102229.03
2022-10-31T05:14:33.074Z,102229.03
2022-10-31T05:16:59.934Z,102229.97
2022-10-31T05:19:26.797Z,102230.84
2022-10-31T05:21:53.688Z,102230.84
2022-10-31T05:24:22.585Z,102227.31
2022-10-31T05:26:50.452Z,102229.09
2022-10-31T05:29:17.509Z,102229.09
2022-10-31T05:31:44.387Z,102230.88
2022-10-31T05:34:11.277Z,102225.59
2022-10-31T05:36:38.213Z,102222.03
2022-10-31T05:39:05.113Z,102218.47
2022-10-31T05:41:32.155Z,102213.22
2022-10-31T05:43:59.023Z,102212.28
2022-10-31T05:46:25.960Z,102226.44
2022-10-31T05:48:52.862Z,102222.06
2022-10-31T05:51:19.738Z,102222.06
2022-10-31T05:53:48.424Z,102222.94
2022-10-31T05:56:15.302Z,102214.09
2022-10-31T05:58:42.204Z,102208.78
2022-10-31T06:01:09.141Z,102206.13
2022-10-31T06:03:36.069Z,102206.13
2022-10-31T06:06:03.237Z,102206.09
2022-10-31T06:08:30.138Z,102206.09
2022-10-31T06:10:57.136Z,102204.38
2022-10-31T06:13:24.089Z,102198.16
2022-10-31T06:15:51.075Z,102201.72
2022-10-31T06:18:17.989Z,102200.78
2022-10-31T06:20:44.867Z,102195.47
2022-10-31T06:23:11.850Z,102196.38
2022-10-31T06:25:38.777Z,102203.47
2022-10-31T06:28:06.103Z,102196.34
2022-10-31T06:30:33.106Z,102197.22
2022-10-31T06:33:05.187Z,102206.97
2022-10-31T06:35:32.991Z,102209.63
2022-10-31T06:38:00.625Z,102210.47
2022-10-31T06:40:27.848Z,102206.97
2022-10-31T06:43:00.080Z,102207.81
2022-10-31T06:45:27.589Z,102220.19
2022-10-31T06:48:16.068Z,102218.41
2022-10-31T06:50:43.212Z,102222.84
2022-10-31T06:53:12.139Z,102228.16
2022-10-31T06:55:39.399Z,102217.50
2022-10-31T06:58:06.801Z,102226.31
2022-10-31T07:00:34.435Z,102223.66
2022-10-31T07:03:05.907Z,102228.06
2022-10-31T07:05:33.200Z,102229.81
2022-10-31T07:08:05.927Z,102224.47
2022-10-31T07:10:39.083Z,102225.34
2022-10-31T07:13:13.372Z,102225.28
2022-10-31T07:15:43.086Z,102230.59
2022-10-31T07:18:12.833Z,102219.94
2022-10-31T07:20:39.758Z,102221.66
2022-10-31T07:23:06.970Z,102225.19
2022-10-31T07:25:33.983Z,102223.34
2022-10-31T07:28:01.211Z,102217.16
2022-10-31T07:30:28.425Z,102222.44
2022-10-31T07:32:56.304Z,102218.91
2022-10-31T07:35:27.553Z,102225.03
2022-10-31T07:37:55.636Z,102228.56
2022-10-31T07:40:23.977Z,102237.41
2022-10-31T07:42:53.456Z,102236.47
2022-10-31T07:45:22.286Z,102230.25
2022-10-31T07:47:52.294Z,102231.09
2022-10-31T07:50:28.036Z,102233.69
2022-10-31T07:53:07.996Z,102231.00
2022-10-31T07:55:35.561Z,102241.59
2022-10-31T07:58:05.994Z,102236.25
2022-10-31T08:00:35.505Z,102230.84
2022-10-31T08:03:08.429Z,102237.06
2022-10-31T08:05:36.318Z,102234.38
2022-10-31T08:08:05.027Z,102241.41
2022-10-31T08:10:33.008Z,102242.25
2022-10-31T08:13:12.042Z,102243.06
2022-10-31T08:15:42.103Z,102246.56
2022-10-31T08:18:14.892Z,102243.78
2022-10-31T08:20:45.477Z,102248.13
2022-10-31T08:23:14.516Z,102253.41
2022-10-31T08:25:42.727Z,102242.66
2022-10-31T08:28:11.999Z,102247.84
2022-10-31T08:30:40.420Z,102243.28
2022-10-31T08:33:14.388Z,102230.75
2022-10-31T08:35:42.288Z,102227.94
2022-10-31T08:38:12.311Z,102232.22
2022-10-31T08:40:40.113Z,102236.56
2022-10-31T08:43:15.044Z,102225.81
2022-10-31T08:45:43.749Z,102231.09
2022-10-31T08:48:13.818Z,102228.34
2022-10-31T08:50:41.047Z,102233.66
2022-10-31T08:53:15.308Z,102233.59
2022-10-31T08:55:43.972Z,102221.06
2022-10-31T08:58:14.524Z,102216.56
2022-10-31T09:00:42.281Z,102208.41
2022-10-31T09:03:21.811Z,102215.50
2022-10-31T09:05:49.146Z,102208.28
2022-10-31T09:08:17.328Z,102213.56
2022-10-31T09:10:45.849Z,102216.06
2022-10-31T09:13:16.674Z,102206.13
2022-10-31T09:15:46.747Z,102195.31
2022-10-31T09:18:15.826Z,102198.69
2022-10-31T09:20:45.023Z,102184.16
2022-10-31T09:23:20.849Z,102184.91
2022-10-31T09:25:51.025Z,102179.38
2022-10-31T09:28:22.003Z,102172.09
2022-10-31T09:30:52.022Z,102167.50
2022-10-31T09:33:20.033Z,102159.31
2022-10-31T09:35:47.081Z,102162.69
2022-10-31T09:38:19.830Z,102156.28
2022-10-31T09:40:56.181Z,102155.19
2022-10-31T09:43:57.700Z,102158.59
2022-10-31T09:46:58.042Z,102161.00
2022-10-31T09:50:02.008Z,102166.97
2022-10-31T09:52:33.311Z,102163.94
2022-10-31T09:55:26.132Z,102161.94
2022-10-31T09:57:53.336Z,102160.84
2022-10-31T10:00:23.250Z,102149.00
2022-10-31T10:02:59.041Z,102148.78
2022-10-31T10:05:35.255Z,102145.72
2022-10-31T10:08:15.366Z,102150.69
2022-10-31T10:11:25.350Z,102141.31
2022-10-31T10:14:16.257Z,102133.91
2022-10-31T10:17:23.266Z,102132.66
2022-10-31T10:20:29.550Z,102134.09
2022-10-31T10:23:30.887Z,102126.91
2022-10-31T10:26:18.283Z,102135.94
2022-10-31T10:28:53.014Z,102126.19
2022-10-31T10:31:29.322Z,102125.22
2022-10-31T10:34:06.565Z,102111.84
2022-10-31T10:36:59.149Z,102111.88
2022-10-31T10:39:39.359Z,102115.41
2022-10-31T10:42:32.785Z,102111.75
2022-10-31T10:45:18.822Z,102106.44
2022-10-31T10:47:56.234Z,102095.47
2022-10-31T10:50:33.619Z,102092.72
2022-10-31T10:53:36.488Z,102076.44
2022-10-31T10:56:40.826Z,102066.50
2022-10-31T10:59:14.487Z,102065.38
2022-10-31T11:01:43.220Z,102065.25
2022-10-31T11:04:31.490Z,102056.94
2022-10-31T11:07:10.793Z,102045.91
2022-10-31T11:09:38.953Z,102036.00
2022-10-31T11:12:31.462Z,102016.28
2022-10-31T11:15:24.486Z,102008.00
2022-10-31T11:17:55.323Z,102003.34
2022-10-31T11:20:31.273Z,102007.59
2022-10-31T11:23:22.310Z,102016.47
2022-10-31T11:25:52.342Z,102011.75
2022-10-31T11:28:19.277Z,102007.81
2022-10-31T11:30:50.354Z,102010.63
2022-10-31T11:33:36.578Z,102013.16
2022-10-31T11:36:25.570Z,102010.88
2022-10-31T11:38:54.031Z,102004.16
2022-10-31T11:41:34.757Z,101996.63
2022-10-31T11:44:17.465Z,101994.19
2022-10-31T11:46:49.883Z,101996.53
2022-10-31T11:49:36.822Z,101996.63
2022-10-31T11:52:14.962Z,101985.69
2022-10-31T11:55:12.377Z,101982.75
2022-10-31T11:57:52.899Z,101960.56
2022-10-31T12:00:30.549Z,101946.47
2022-10-31T12:03:25.027Z,101934.81
2022-10-31T12:06:18.775Z,101929.47
2022-10-31T12:08:46.636Z,101922.38
2022-10-31T12:11:36.565Z,101926.03
2022-10-31T12:14:35.338Z,101915.19
2022-10-31T12:17:25.988Z,101924.16
2022-10-31T12:20:08.098Z,101909.06
2022-10-31T12:22:49.619Z,101898.59
2022-10-31T12:25:42.087Z,101898.59
2022-10-31T12:28:44.921Z,101890.78
2022-10-31T12:31:42.451Z,101873.50
2022-10-31T12:34:46.178Z,101868.91
2022-10-31T12:38:04.077Z,101871.28
2022-10-31T12:40:57.261Z,101848.72
2022-10-31T12:43:56.561Z,101856.63
2022-10-31T12:46:58.057Z,101850.88
2022-10-31T12:49:53.280Z,101840.41
2022-10-31T12:52:32.231Z,101832.09
2022-10-31T12:55:25.208Z,101827.53
2022-10-31T12:58:00.430Z,101827.53
2022-10-31T13:00:30.489Z,101819.38
2022-10-31T13:03:23.255Z,101815.88
2022-10-31T13:05:57.686Z,101815.81
2022-10-31T13:08:36.875Z,101814.72
2022-10-31T13:11:16.982Z,101799.38
2022-10-31T13:14:12.447Z,101801.81
2022-10-31T13:16:45.176Z,101801.81
2022-10-31T13:19:22.432Z,101784.91
2022-10-31T13:22:05.232Z,101763.50
2022-10-31T13:24:42.725Z,101761.63
2022-10-31T13:27:21.747Z,101758.00
2022-10-31T13:30:05.105Z,101752.53
2022-10-31T13:32:57.350Z,101752.63
2022-10-31T13:35:33.071Z,101752.47
2022-10-31T13:38:41.127Z,101739.06
2022-10-31T13:41:36.155Z,101735.19
2022-10-31T13:44:14.533Z,101728.00
2022-10-31T13:49:30.649Z,101716.72
2022-10-31T13:52:13.125Z,101706.59
2022-10-31T13:54:42.224Z,101705.44
2022-10-31T13:57:19.919Z,101708.06
2022-10-31T14:00:16.124Z,101698.00
2022-10-31T14:02:50.039Z,101698.13
2022-10-31T14:05:34.703Z,101692.69
2022-10-31T14:08:05.088Z,101684.63
2022-10-31T14:10:50.935Z,101682.06
2022-10-31T14:13:42.551Z,101690.00
2022-10-31T14:16:31.028Z,101680.94
2022-10-31T14:19:09.291Z,101676.63
2022-10-31T14:21:43.129Z,101667.81
2022-10-31T14:24:31.724Z,101662.53
2022-10-31T14:27:04.005Z,101656.28
2022-10-31T14:29:34.079Z,101651.88
2022-10-31T14:32:20.871Z,101645.75
2022-10-31T14:35:01.405Z,101640.56
2022-10-31T14:37:34.832Z,101636.13
2022-10-31T14:40:44.886Z,101629.91
2022-10-31T14:43:37.963Z,101626.44
2022-10-31T14:46:33.559Z,101619.31
2022-10-31T14:49:11.943Z,101613.06
2022-10-31T14:51:45.162Z,101607.88
2022-10-31T14:54:31.228Z,101607.88
2022-10-31T14:57:13.649Z,101613.31
2022-10-31T14:59:56.838Z,101609.75
2022-10-31T15:02:39.160Z,101620.59
2022-10-31T15:05:12.254Z,101608.25
2022-10-31T15:07:59.563Z,101610.13
2022-10-31T15:10:32.873Z,101607.44
2022-10-31T15:13:20.853Z,101596.91
2022-10-31T15:15:52.016Z,101604.00
2022-10-31T15:18:27.509Z,101597.91
2022-10-31T15:20:57.167Z,101596.16
2022-10-31T15:23:30.110Z,101586.38
2022-10-31T15:26:06.167Z,101587.31
2022-10-31T15:28:33.290Z,101582.13
2022-10-31T15:31:03.036Z,101578.44
2022-10-31T15:33:47.878Z,101573.22
2022-10-31T15:36:29.207Z,101571.53
2022-10-31T15:38:58.682Z,101567.25
2022-10-31T15:41:56.450Z,101554.75
2022-10-31T15:44:30.853Z,101548.50
2022-10-31T15:47:19.591Z,101551.25
2022-10-31T15:49:54.984Z,101539.81
2022-10-31T15:52:41.106Z,101529.13
2022-10-31T15:55:10.651Z,101513.16
2022-10-31T15:57:43.946Z,101514.97
2022-10-31T16:00:34.617Z,101506.22
2022-10-31T16:03:16.564Z,101511.66
2022-10-31T16:05:52.895Z,101512.59
2022-10-31T16:08:32.142Z,101504.66
2022-10-31T16:11:07.953Z,101514.66
2022-10-31T16:13:42.198Z,101504.00
2022-10-31T16:16:35.726Z,101505.03
2022-10-31T16:19:06.982Z,101506.84
2022-10-31T16:21:38.394Z,101504.28
2022-10-31T16:24:25.833Z,101502.53
2022-10-31T16:26:59.106Z,101498.28
2022-10-31T16:29:40.621Z,101497.34
2022-10-31T16:32:36.341Z,101502.94
2022-10-31T16:35:09.239Z,101493.38
2022-10-31T16:37:39.687Z,101487.25
2022-10-31T16:40:07.562Z,101483.97
2022-10-31T16:42:34.463Z,101483.22
2022-10-31T16:45:01.516Z,101487.78
2022-10-31T16:47:28.660Z,101479.09
2022-10-31T16:50:00.616Z,101470.28
2022-10-31T16:52:28.342Z,101470.34
2022-10-31T16:54:58.334Z,101471.34
2022-10-31T16:57:30.912Z,101474.19
2022-10-31T16:59:58.760Z,101461.03
2022-10-31T17:02:26.153Z,101459.41
2022-10-31T17:04:55.799Z,101453.31
2022-10-31T17:07:23.857Z,101449.75
2022-10-31T17:09:50.746Z,101446.25
2022-10-31T17:12:23.005Z,101448.06
2022-10-31T17:14:52.915Z,101439.09
2022-10-31T17:17:19.813Z,101439.22
2022-10-31T17:19:46.816Z,101433.91
2022-10-31T17:22:15.519Z,101438.50
2022-10-31T17:24:42.597Z,101439.44
2022-10-31T17:27:09.718Z,101434.19
2022-10-31T17:29:36.726Z,101429.88
2022-10-31T17:32:04.202Z,101430.81
2022-10-31T17:34:31.729Z,101417.56
2022-10-31T17:36:58.722Z,101415.88
2022-10-31T17:39:25.965Z,101412.44
2022-10-31T17:41:53.056Z,101412.59
2022-10-31T17:44:20.060Z,101411.78
2022-10-31T17:46:47.032Z,101405.63
2022-10-31T17:49:14.098Z,101407.53
2022-10-31T17:51:40.979Z,101391.69
2022-10-31T17:54:09.067Z,101391.78
2022-10-31T17:56:35.985Z,101391.03
2022-10-31T17:59:03.360Z,101380.44
2022-10-31T18:01:30.464Z,101378.88
2022-10-31T18:03:58.065Z,101372.69
2022-10-31T18:06:24.935Z,101370.34
2022-10-31T18:08:51.904Z,101352.53
2022-10-31T18:11:21.973Z,101348.19
2022-10-31T18:13:53.841Z,101340.22
2022-10-31T18:16:20.737Z,101326.03
2022-10-31T18:18:59.155Z,101319.94
2022-10-31T18:21:26.598Z,101313.72
2022-10-31T18:23:58.100Z,101320.91
2022-10-31T18:26:27.007Z,101324.59
2022-10-31T18:28:54.550Z,101346.97
2022-10-31T18:31:21.793Z,101350.56
2022-10-31T18:33:48.695Z,101349.81
2022-10-31T18:36:15.613Z,101339.16
2022-10-31T18:38:46.740Z,101343.75
2022-10-31T18:41:15.138Z,101344.78
2022-10-31T18:43:42.583Z,101342.22
2022-10-31T18:46:14.733Z,101336.03
2022-10-31T18:48:43.959Z,101325.53
2022-10-31T18:51:14.279Z,101325.66
2022-10-31T18:53:41.448Z,101322.09
2022-10-31T18:56:10.890Z,101315.94
2022-10-31T18:58:38.002Z,101316.25
2022-10-31T19:01:10.821Z,101312.75
2022-10-31T19:03:38.862Z,101307.34
2022-10-31T19:06:07.448Z,101304.69
2022-10-31T19:08:35.855Z,101312.69
2022-10-31T19:11:12.744Z,101313.56
2022-10-31T19:13:41.346Z,101313.47
2022-10-31T19:16:13.879Z,101314.44
2022-10-31T19:18:42.222Z,101303.75
2022-10-31T19:21:16.102Z,101308.91
2022-10-31T19:23:45.012Z,101308.16
2022-10-31T19:26:12.845Z,101293.72
2022-10-31T19:28:41.965Z,101291.19
2022-10-31T19:31:09.689Z,101294.78
2022-10-31T19:33:38.262Z,101296.28
2022-10-31T19:36:10.485Z,101294.47
2022-10-31T19:38:39.967Z,101289.19
2022-10-31T19:41:13.613Z,101284.59
2022-10-31T19:43:41.043Z,101284.59
2022-10-31T19:46:17.537Z,101281.91
2022-10-31T19:48:54.978Z,101274.81
2022-10-31T19:51:22.478Z,101279.25
2022-10-31T19:53:49.787Z,101277.50
2022-10-31T19:56:19.606Z,101281.97
2022-10-31T19:58:46.824Z,101276.56
2022-10-31T20:01:20.715Z,101274.78
2022-10-31T20:03:49.056Z,101275.59
2022-10-31T20:06:23.100Z,101265.00
2022-10-31T20:08:50.442Z,101263.91
2022-10-31T20:11:17.575Z,101264.00
2022-10-31T20:13:44.709Z,101267.41
2022-10-31T20:16:15.075Z,101260.91
2022-10-31T20:18:43.410Z,101254.84
2022-10-31T20:21:14.341Z,101262.81
2022-10-31T20:23:41.686Z,101251.25
2022-10-31T20:26:11.577Z,101249.56
2022-10-31T20:28:43.269Z,101238.78
2022-10-31T20:31:16.373Z,101237.13
2022-10-31T20:33:43.571Z,101242.59
2022-10-31T20:36:10.636Z,101239.06
2022-10-31T20:38:39.530Z,101235.47
2022-10-31T20:41:09.373Z,101234.66
2022-10-31T20:43:36.754Z,101238.38
2022-10-31T20:46:13.361Z,101228.66
2022-10-31T20:48:40.717Z,101229.59
2022-10-31T20:53:49.613Z,101226.03
2022-10-31T20:56:19.835Z,101218.97
2022-10-31T20:58:47.240Z,101217.22
2022-10-31T21:01:21.269Z,101213.63
2022-10-31T21:03:49.750Z,101217.22
2022-10-31T21:06:18.738Z,101217.22
2022-10-31T21:08:46.135Z,101211.81
2022-10-31T21:11:20.430Z,101210.00
2022-10-31T21:13:49.292Z,101210.00
2022-10-31T21:16:36.195Z,101207.41
2022-10-31T21:19:04.721Z,101203.91
2022-10-31T21:21:36.104Z,101196.88
2022-10-31T21:24:14.955Z,101193.41
2022-10-31T21:26:46.379Z,101195.25
2022-10-31T21:29:15.231Z,101182.84
2022-10-31T21:31:42.962Z,101183.84
2022-10-31T21:34:10.364Z,101188.44
2022-10-31T21:36:37.794Z,101174.19
2022-10-31T21:39:07.050Z,101172.44
2022-10-31T21:41:34.140Z,101167.16
2022-10-31T21:44:01.014Z,101171.63
2022-10-31T21:46:33.328Z,101162.75
2022-10-31T21:49:03.644Z,101167.31
2022-10-31T21:51:34.401Z,101159.28
2022-10-31T21:54:20.729Z,101157.53
2022-10-31T21:56:48.144Z,101152.19
2022-10-31T21:59:15.044Z,101143.31
2022-10-31T22:01:42.111Z,101139.63
2022-10-31T22:04:09.442Z,101138.81
2022-10-31T22:06:37.120Z,101134.34
2022-10-31T22:09:07.017Z,101138.56
2022-10-31T22:11:34.656Z,101131.34
2022-10-31T22:14:02.677Z,101125.13
2022-10-31T22:16:33.418Z,101130.47
2022-10-31T22:19:05.068Z,101124.03
2022-10-31T22:21:38.769Z,101115.19
2022-10-31T22:24:07.726Z,101123.94
2022-10-31T22:26:35.536Z,101116.66
2022-10-31T22:29:05.623Z,101119.44
2022-10-31T22:31:34.059Z,101123.22
2022-10-31T22:34:01.466Z,101114.38
2022-10-31T22:36:30.623Z,101107.97
2022-10-31T22:38:58.476Z,101111.56
2022-10-31T22:41:29.027Z,101107.16
2022-10-31T22:43:57.175Z,101108.91
2022-10-31T22:46:30.142Z,101107.09
2022-10-31T22:49:01.169Z,101104.28
2022-10-31T22:51:32.444Z,101101.88
2022-10-31T22:54:00.041Z,101088.31
2022-10-31T22:56:31.205Z,101085.91
2022-10-31T22:58:59.223Z,101082.88
2022-10-31T23:01:31.412Z,101079.16
2022-10-31T23:03:58.762Z,101084.97
2022-10-31T23:06:32.460Z,101073.13
2022-10-31T23:09:03.175Z,101072.41
2022-10-31T23:11:34.524Z,101079.59
2022-10-31T23:14:15.740Z,101074.47
2022-10-31T23:16:53.897Z,101063.00
2022-10-31T23:19:29.712Z,101062.13
2022-10-31T23:22:03.862Z,101062.25
2022-10-31T23:24:45.357Z,101053.47
2022-10-31T23:27:22.359Z,101054.47
2022-10-31T23:29:56.477Z,101046.50
2022-10-31T23:32:35.546Z,101049.25
2022-10-31T23:35:09.247Z,101044.81
2022-10-31T23:37:38.408Z,101042.28
2022-10-31T23:40:08.054Z,101050.25
2022-10-31T23:42:35.010Z,101047.72
2022-10-31T23:45:02.078Z,101042.38
2022-10-31T23:47:28.957Z,101038.03
2022-10-31T23:49:55.825Z,101025.50
2022-10-31T23:52:22.694Z,101024.72
2022-10-31T23:54:49.633Z,101026.38
2022-10-31T23:57:17.272Z,101021.16
2022-10-31T23:59:44.371Z,101019.41
